METAR Data
IDs: Format: Raw Decoded Include TAF

Data at: 0113 UTC 06 Dec 2019

KSRB 060055Z AUTO 00000KT 10SM CLR 02/M01 A3011 RMK A01
KSRB 060035Z AUTO 00000KT 10SM CLR 01/M01 A3012 RMK A01
KSRB 060015Z AUTO 00000KT 10SM CLR 01/M01 A3011 RMK A01
KSRB 052355Z AUTO 00000KT 10SM CLR 02/M01 A3010 RMK A01
KSRB 052335Z AUTO 00000KT 10SM CLR 02/M01 A3010 RMK A01
KSRB 052315Z AUTO 00000KT 10SM CLR 03/M01 A3010 RMK A01
KSRB 052255Z AUTO 00000KT 10SM CLR 03/00 A3009 RMK A01
KSRB 052235Z AUTO 00000KT 10SM CLR 05/M01 A3010 RMK A01
KSRB 052215Z AUTO 00000KT 10SM CLR 09/M00 A3010 RMK A01
KSRB 052155Z AUTO 20003KT 10SM CLR 14/M03 A3010 RMK A01
KSRB 052135Z AUTO 17004KT 10SM CLR 15/M03 A3010 RMK A01
KSRB 052115Z AUTO 00000KT 10SM CLR 16/M03 A3010 RMK A01
KSRB 052055Z AUTO 23004KT 10SM CLR 16/M04 A3010 RMK A01
KSRB 052035Z AUTO VRB06KT 10SM CLR 16/M04 A3010 RMK A01
KSRB 052015Z AUTO 00000KT 10SM CLR 16/M03 A3010 RMK A01
KSRB 051955Z AUTO 23006KT 10SM CLR 16/M03 A3010 RMK A01
KSRB 051935Z AUTO VRB03KT 10SM CLR 15/M03 A3011 RMK A01
KSRB 051915Z AUTO 23004KT 10SM CLR 15/M02 A3011 RMK A01
KSRB 051855Z AUTO 21006KT 10SM CLR 15/M02 A3011 RMK A01
KSRB 051835Z AUTO 21004KT 10SM CLR 14/M02 A3012 RMK A01
KSRB 051815Z AUTO 22005KT 10SM CLR 14/M01 A3012 RMK A01
KSRB 051755Z AUTO 19005KT 10SM CLR 13/00 A3013 RMK A01
KSRB 051735Z AUTO 19005KT 10SM CLR 13/01 A3013 RMK A01
KSRB 051715Z AUTO VRB04KT 10SM CLR 12/01 A3014 RMK A01
KSRB 051655Z AUTO VRB05KT 10SM CLR 11/01 A3015 RMK A01
KSRB 051615Z AUTO 21004KT 10SM CLR 10/02 A3016 RMK A01
KSRB 051555Z AUTO 22004KT 10SM CLR 09/02 A3016 RMK A01
KSRB 051535Z AUTO 00000KT 10SM CLR 08/02 A3016 RMK A01
KSRB 051515Z AUTO 00000KT 10SM CLR 07/02 A3016 RMK A01
KSRB 051455Z AUTO 00000KT 10SM CLR 05/02 A3014 RMK A01
KSRB 051435Z AUTO 00000KT 10SM CLR 04/01 A3013 RMK A01
KSRB 051415Z AUTO 00000KT 10SM CLR 02/00 A3013 RMK A01
KSRB 051355Z AUTO 00000KT 10SM CLR M00/M01 A3012 RMK A01
KSRB 051335Z AUTO 00000KT 10SM CLR M02/M02 A3011 RMK A01
KSRB 051315Z AUTO 00000KT 10SM CLR M03/M04 A3010 RMK A01
KSRB 051255Z AUTO 00000KT 10SM CLR M05/M05 A3010 RMK A01
KSRB 051235Z AUTO 00000KT 10SM CLR M05/M05 A3009 RMK A01
KSRB 051215Z AUTO 00000KT 10SM CLR M05/M06 A3008 RMK A01
KSRB 051155Z AUTO 00000KT 10SM CLR M05/M05 A3008 RMK A01
KSRB 051135Z AUTO 00000KT 10SM CLR M04/M05 A3007 RMK A01
KSRB 051115Z AUTO 00000KT 10SM CLR M05/M05 A3006 RMK A01
KSRB 051055Z AUTO 00000KT 10SM CLR M05/M05 A3007 RMK A01
KSRB 051035Z AUTO 05003KT 10SM CLR M04/M05 A3006 RMK A01
KSRB 051015Z AUTO 00000KT 10SM CLR M05/M05 A3006 RMK A01
KSRB 050955Z AUTO 00000KT 10SM CLR M05/M05 A3005 RMK A01
KSRB 050935Z AUTO 00000KT 10SM CLR M04/M05 A3005 RMK A01
KSRB 050915Z AUTO 00000KT 10SM CLR M04/M05 A3005 RMK A01
KSRB 050855Z AUTO 00000KT 10SM CLR M04/M05 A3004 RMK A01
KSRB 050835Z AUTO 00000KT 10SM CLR M04/M05 A3005 RMK A01
KSRB 050810Z AUTO 00000KT 10SM CLR M04/M04 A3004 RMK A01
KSRB 050755Z AUTO 00000KT 10SM CLR M04/M05 A3004 RMK A01
KSRB 050735Z AUTO 00000KT 10SM CLR M04/M05 A3004 RMK A01
KSRB 050715Z AUTO 00000KT 10SM CLR M04/M05 A3004 RMK A01
KSRB 050655Z AUTO 00000KT 10SM CLR M04/M05 A3003 RMK A01
KSRB 050615Z AUTO 00000KT 10SM CLR M04/M04 A3002 RMK A01
KSRB 050555Z AUTO 00000KT 10SM CLR M04/M04 A3001 RMK A01
KSRB 050535Z AUTO 00000KT 10SM CLR M03/M04 A3001 RMK A01
KSRB 050515Z AUTO 00000KT 10SM CLR M03/M04 A3000 RMK A01
KSRB 050455Z AUTO 00000KT 10SM CLR M03/M03 A2999 RMK A01
KSRB 050435Z AUTO 00000KT 10SM CLR M02/M03 A2998 RMK A01
KSRB 050415Z AUTO 00000KT 10SM CLR M02/M03 A2998 RMK A01
KSRB 050355Z AUTO 00000KT 10SM CLR M02/M03 A2998 RMK A01
KSRB 050335Z AUTO 00000KT 10SM CLR M02/M03 A2997 RMK A01
KSRB 050315Z AUTO 00000KT 10SM CLR M02/M03 A2997 RMK A01
KSRB 050255Z AUTO 00000KT 10SM CLR M02/M03 A2996 RMK A01
KSRB 050235Z AUTO 00000KT 10SM CLR M02/M03 A2996 RMK A01
KSRB 050215Z AUTO 00000KT 10SM CLR M01/M02 A2996 RMK A01
KSRB 050155Z AUTO 00000KT 10SM CLR M01/M02 A2995 RMK A01
KSRB 050135Z AUTO 00000KT 10SM CLR M01/M02 A2995 RMK A01
KSRB 050115Z AUTO 21003KT 10SM CLR M00/M02 A2994 RMK A01
KSRB 050055Z AUTO 21003KT 10SM CLR 00/M02 A2994 RMK A01
KSRB 050035Z AUTO 00000KT 10SM CLR M00/M02 A2994 RMK A01
KSRB 050015Z AUTO 00000KT 10SM CLR 00/M02 A2993 RMK A01
KSRB 042355Z AUTO 00000KT 10SM CLR 01/M02 A2993 RMK A01
KSRB 042335Z AUTO 00000KT 10SM CLR 03/M02 A2992 RMK A01
KSRB 042315Z AUTO 00000KT 10SM CLR 06/M02 A2992 RMK A01
KSRB 042255Z AUTO 00000KT 10SM CLR 07/M03 A2992 RMK A01
KSRB 042235Z AUTO 28004KT 10SM CLR 09/M03 A2991 RMK A01
KSRB 042215Z AUTO 00000KT 10SM CLR 11/M03 A2990 RMK A01
KSRB 042155Z AUTO VRB05KT 10SM CLR 12/M03 A2989 RMK A01
KSRB 042135Z AUTO VRB04KT 10SM CLR 13/M04 A2989 RMK A01
KSRB 042115Z AUTO VRB06KT 10SM CLR 13/M04 A2988 RMK A01
KSRB 042055Z AUTO VRB04G10KT 10SM CLR 13/M03 A2988 RMK A01
KSRB 042035Z AUTO 28006KT 10SM CLR 13/M03 A2987 RMK A01
KSRB 042015Z AUTO VRB03G10KT 10SM CLR 13/M02 A2987 RMK A01
KSRB 041955Z AUTO 32008KT 10SM CLR 13/M02 A2986 RMK A01
KSRB 041935Z AUTO VRB05KT 10SM CLR 13/M01 A2987 RMK A01
KSRB 041915Z AUTO 00000KT 10SM CLR 12/M01 A2987 RMK A01
KSRB 041855Z AUTO 28004G13KT 10SM CLR 12/M01 A2988 RMK A01
KSRB 041835Z AUTO 29007G13KT 10SM CLR 12/M02 A2988 RMK A01
KSRB 041815Z AUTO 26009KT 230V290 10SM CLR 12/M02 A2988 RMK A01
KSRB 041755Z AUTO 28005G11KT 10SM CLR 11/M01 A2988 RMK A01
KSRB 041735Z AUTO 24007KT 200V260 10SM CLR 10/01 A2988 RMK A01
KSRB 041715Z AUTO VRB04KT 10SM CLR 10/01 A2989 RMK A01
KSRB 041655Z AUTO 24005KT 10SM CLR 09/01 A2989 RMK A01
KSRB 041635Z AUTO 24006KT 10SM CLR 08/01 A2990 RMK A01
KSRB 041615Z AUTO VRB04KT 10SM CLR 08/02 A2990 RMK A01
KSRB 041555Z AUTO VRB05KT 10SM CLR 07/01 A2990 RMK A01
KSRB 041535Z AUTO VRB05KT 10SM CLR 06/01 A2990 RMK A01
KSRB 041515Z AUTO 22007KT 10SM CLR 06/02 A2990 RMK A01
KSRB 041455Z AUTO 22005KT 10SM CLR 04/01 A2990 RMK A01
KSRB 041435Z AUTO 21005KT 10SM CLR 04/01 A2989 RMK A01
KSRB 041415Z AUTO 21005KT 10SM CLR 03/01 A2989 RMK A01
KSRB 041355Z AUTO 20004KT 10SM CLR 02/M00 A2988 RMK A01
KSRB 041335Z AUTO 19005KT 10SM CLR 00/M01 A2988 RMK A01
KSRB 041315Z AUTO 20004KT 10SM CLR M02/M02 A2988 RMK A01